sensor_id;sensor_type;location;lat;lon;timestamp;P1;durP1;ratioP1;P2;durP2;ratioP2
77055;SDS011;67471;44.918;8.614;2023-03-11T00:00:05;3.35;;;1.45;;
77055;SDS011;67471;44.918;8.614;2023-03-11T00:03:16;3.65;;;1.25;;
77055;SDS011;67471;44.918;8.614;2023-03-11T00:06:21;4.18;;;1.20;;
77055;SDS011;67471;44.918;8.614;2023-03-11T00:09:25;9.18;;;1.40;;
77055;SDS011;67471;44.918;8.614;2023-03-11T00:12:29;2.63;;;1.00;;
77055;SDS011;67471;44.918;8.614;2023-03-11T00:15:32;2.58;;;1.33;;
77055;SDS011;67471;44.918;8.614;2023-03-11T00:18:36;2.95;;;1.15;;
77055;SDS011;67471;44.918;8.614;2023-03-11T00:21:40;4.43;;;1.35;;
77055;SDS011;67471;44.918;8.614;2023-03-11T00:24:44;2.80;;;1.30;;
77055;SDS011;67471;44.918;8.614;2023-03-11T00:27:48;2.70;;;1.20;;
77055;SDS011;67471;44.918;8.614;2023-03-11T00:30:52;3.22;;;1.23;;
77055;SDS011;67471;44.918;8.614;2023-03-11T00:33:56;5.88;;;1.67;;
77055;SDS011;67471;44.918;8.614;2023-03-11T00:37:00;3.42;;;1.40;;
77055;SDS011;67471;44.918;8.614;2023-03-11T00:40:04;2.83;;;1.40;;
77055;SDS011;67471;44.918;8.614;2023-03-11T00:43:12;2.05;;;1.05;;
77055;SDS011;67471;44.918;8.614;2023-03-11T00:46:16;5.00;;;1.17;;
77055;SDS011;67471;44.918;8.614;2023-03-11T00:49:20;2.65;;;1.27;;
77055;SDS011;67471;44.918;8.614;2023-03-11T00:52:24;2.72;;;1.27;;
77055;SDS011;67471;44.918;8.614;2023-03-11T00:55:29;4.05;;;1.30;;
77055;SDS011;67471;44.918;8.614;2023-03-11T00:58:36;3.10;;;1.02;;
77055;SDS011;67471;44.918;8.614;2023-03-11T01:01:40;3.50;;;1.30;;
77055;SDS011;67471;44.918;8.614;2023-03-11T01:04:44;2.58;;;1.40;;
77055;SDS011;67471;44.918;8.614;2023-03-11T01:07:48;2.33;;;1.13;;
77055;SDS011;67471;44.918;8.614;2023-03-11T01:10:52;2.88;;;0.90;;
77055;SDS011;67471;44.918;8.614;2023-03-11T01:13:56;3.13;;;1.08;;
77055;SDS011;67471;44.918;8.614;2023-03-11T01:17:00;2.92;;;1.13;;
77055;SDS011;67471;44.918;8.614;2023-03-11T01:20:04;4.13;;;1.10;;
77055;SDS011;67471;44.918;8.614;2023-03-11T01:23:10;3.45;;;0.95;;
77055;SDS011;67471;44.918;8.614;2023-03-11T01:26:13;3.67;;;1.58;;
77055;SDS011;67471;44.918;8.614;2023-03-11T01:29:17;5.68;;;1.05;;
77055;SDS011;67471;44.918;8.614;2023-03-11T01:32:21;2.35;;;1.10;;
77055;SDS011;67471;44.918;8.614;2023-03-11T01:35:26;3.47;;;1.40;;
77055;SDS011;67471;44.918;8.614;2023-03-11T01:38:31;2.67;;;1.10;;
77055;SDS011;67471;44.918;8.614;2023-03-11T01:41:35;3.22;;;1.20;;
77055;SDS011;67471;44.918;8.614;2023-03-11T01:44:39;6.43;;;2.80;;
77055;SDS011;67471;44.918;8.614;2023-03-11T01:47:43;4.63;;;1.70;;
77055;SDS011;67471;44.918;8.614;2023-03-11T01:50:48;4.43;;;1.75;;
77055;SDS011;67471;44.918;8.614;2023-03-11T01:53:53;7.53;;;1.73;;
77055;SDS011;67471;44.918;8.614;2023-03-11T01:57:00;3.58;;;1.80;;
77055;SDS011;67471;44.918;8.614;2023-03-11T02:00:08;5.28;;;2.53;;
77055;SDS011;67471;44.918;8.614;2023-03-11T02:03:18;3.08;;;1.60;;
77055;SDS011;67471;44.918;8.614;2023-03-11T02:06:26;6.80;;;1.90;;
77055;SDS011;67471;44.918;8.614;2023-03-11T02:09:32;6.75;;;1.50;;
77055;SDS011;67471;44.918;8.614;2023-03-11T02:12:36;2.75;;;1.33;;
77055;SDS011;67471;44.918;8.614;2023-03-11T02:15:40;3.35;;;1.15;;
77055;SDS011;67471;44.918;8.614;2023-03-11T02:18:44;2.47;;;1.20;;
77055;SDS011;67471;44.918;8.614;2023-03-11T02:21:48;6.03;;;2.08;;
77055;SDS011;67471;44.918;8.614;2023-03-11T02:24:58;4.60;;;1.70;;
77055;SDS011;67471;44.918;8.614;2023-03-11T02:28:10;4.03;;;1.30;;
77055;SDS011;67471;44.918;8.614;2023-03-11T02:31:16;6.80;;;2.35;;
77055;SDS011;67471;44.918;8.614;2023-03-11T02:34:29;5.05;;;1.35;;
77055;SDS011;67471;44.918;8.614;2023-03-11T02:37:34;5.70;;;1.77;;
77055;SDS011;67471;44.918;8.614;2023-03-11T02:40:46;5.03;;;1.88;;
77055;SDS011;67471;44.918;8.614;2023-03-11T02:44:00;7.28;;;2.28;;
77055;SDS011;67471;44.918;8.614;2023-03-11T02:47:05;2.92;;;1.80;;
77055;SDS011;67471;44.918;8.614;2023-03-11T02:50:11;3.08;;;1.50;;
77055;SDS011;67471;44.918;8.614;2023-03-11T02:53:17;3.92;;;1.38;;
77055;SDS011;67471;44.918;8.614;2023-03-11T02:56:21;2.65;;;1.20;;
77055;SDS011;67471;44.918;8.614;2023-03-11T02:59:25;4.70;;;1.70;;
77055;SDS011;67471;44.918;8.614;2023-03-11T03:02:28;4.88;;;1.80;;
77055;SDS011;67471;44.918;8.614;2023-03-11T03:05:33;2.75;;;1.58;;
77055;SDS011;67471;44.918;8.614;2023-03-11T03:08:38;4.35;;;1.70;;
77055;SDS011;67471;44.918;8.614;2023-03-11T03:11:42;2.95;;;1.55;;
77055;SDS011;67471;44.918;8.614;2023-03-11T03:14:46;5.10;;;1.73;;
77055;SDS011;67471;44.918;8.614;2023-03-11T03:17:49;6.03;;;1.70;;
77055;SDS011;67471;44.918;8.614;2023-03-11T03:20:54;3.92;;;1.65;;
77055;SDS011;67471;44.918;8.614;2023-03-11T03:23:58;5.53;;;1.42;;
77055;SDS011;67471;44.918;8.614;2023-03-11T03:27:02;4.30;;;1.40;;
77055;SDS011;67471;44.918;8.614;2023-03-11T03:30:06;4.10;;;1.60;;
77055;SDS011;67471;44.918;8.614;2023-03-11T03:33:12;4.35;;;1.58;;
77055;SDS011;67471;44.918;8.614;2023-03-11T03:36:16;3.38;;;1.60;;
77055;SDS011;67471;44.918;8.614;2023-03-11T03:39:24;3.88;;;1.50;;
77055;SDS011;67471;44.918;8.614;2023-03-11T03:42:29;2.78;;;1.50;;
77055;SDS011;67471;44.918;8.614;2023-03-11T03:45:33;4.05;;;1.73;;
77055;SDS011;67471;44.918;8.614;2023-03-11T03:48:37;3.00;;;1.45;;
77055;SDS011;67471;44.918;8.614;2023-03-11T03:51:42;2.38;;;1.30;;
77055;SDS011;67471;44.918;8.614;2023-03-11T03:54:52;9.20;;;1.85;;
77055;SDS011;67471;44.918;8.614;2023-03-11T03:57:56;3.63;;;1.60;;
77055;SDS011;67471;44.918;8.614;2023-03-11T04:01:04;5.30;;;1.63;;
77055;SDS011;67471;44.918;8.614;2023-03-11T04:04:09;3.90;;;1.98;;
77055;SDS011;67471;44.918;8.614;2023-03-11T04:07:13;3.90;;;1.52;;
77055;SDS011;67471;44.918;8.614;2023-03-11T04:10:17;4.50;;;1.27;;
77055;SDS011;67471;44.918;8.614;2023-03-11T04:13:21;3.47;;;1.40;;
77055;SDS011;67471;44.918;8.614;2023-03-11T04:16:24;7.93;;;2.00;;
77055;SDS011;67471;44.918;8.614;2023-03-11T04:19:35;5.00;;;1.77;;
77055;SDS011;67471;44.918;8.614;2023-03-11T04:22:39;2.72;;;1.48;;
77055;SDS011;67471;44.918;8.614;2023-03-11T04:25:43;4.18;;;2.40;;
77055;SDS011;67471;44.918;8.614;2023-03-11T04:28:46;4.18;;;1.88;;
77055;SDS011;67471;44.918;8.614;2023-03-11T04:31:51;4.68;;;2.40;;
77055;SDS011;67471;44.918;8.614;2023-03-11T04:34:54;5.53;;;1.70;;
77055;SDS011;67471;44.918;8.614;2023-03-11T04:37:58;6.78;;;2.33;;
77055;SDS011;67471;44.918;8.614;2023-03-11T04:41:04;5.78;;;1.65;;
77055;SDS011;67471;44.918;8.614;2023-03-11T04:44:08;6.78;;;2.63;;
77055;SDS011;67471;44.918;8.614;2023-03-11T04:47:12;4.68;;;2.20;;
77055;SDS011;67471;44.918;8.614;2023-03-11T04:50:17;6.68;;;2.40;;
77055;SDS011;67471;44.918;8.614;2023-03-11T04:53:22;6.15;;;2.25;;
77055;SDS011;67471;44.918;8.614;2023-03-11T04:56:26;4.82;;;2.08;;
77055;SDS011;67471;44.918;8.614;2023-03-11T04:59:30;4.57;;;1.92;;
77055;SDS011;67471;44.918;8.614;2023-03-11T05:02:34;4.55;;;2.22;;
77055;SDS011;67471;44.918;8.614;2023-03-11T05:05:39;3.85;;;1.70;;
77055;SDS011;67471;44.918;8.614;2023-03-11T05:08:42;6.57;;;2.03;;
77055;SDS011;67471;44.918;8.614;2023-03-11T05:11:46;4.03;;;1.50;;
77055;SDS011;67471;44.918;8.614;2023-03-11T05:14:54;6.28;;;1.95;;
77055;SDS011;67471;44.918;8.614;2023-03-11T05:17:59;6.10;;;1.80;;
77055;SDS011;67471;44.918;8.614;2023-03-11T05:21:02;5.32;;;2.05;;
77055;SDS011;67471;44.918;8.614;2023-03-11T05:24:09;5.47;;;2.38;;
77055;SDS011;67471;44.918;8.614;2023-03-11T05:27:12;5.65;;;2.00;;
77055;SDS011;67471;44.918;8.614;2023-03-11T05:30:21;5.40;;;2.15;;
77055;SDS011;67471;44.918;8.614;2023-03-11T05:33:25;5.93;;;1.98;;
77055;SDS011;67471;44.918;8.614;2023-03-11T05:36:34;4.13;;;2.10;;
77055;SDS011;67471;44.918;8.614;2023-03-11T05:39:38;4.95;;;2.45;;
77055;SDS011;67471;44.918;8.614;2023-03-11T05:42:42;4.88;;;2.38;;
77055;SDS011;67471;44.918;8.614;2023-03-11T05:45:49;7.93;;;2.88;;
77055;SDS011;67471;44.918;8.614;2023-03-11T05:48:52;4.28;;;2.08;;
77055;SDS011;67471;44.918;8.614;2023-03-11T05:51:56;4.70;;;2.13;;
77055;SDS011;67471;44.918;8.614;2023-03-11T05:55:01;6.47;;;2.42;;
77055;SDS011;67471;44.918;8.614;2023-03-11T05:58:07;6.47;;;3.58;;
77055;SDS011;67471;44.918;8.614;2023-03-11T06:01:12;11.02;;;3.28;;
77055;SDS011;67471;44.918;8.614;2023-03-11T06:04:17;7.22;;;2.30;;
77055;SDS011;67471;44.918;8.614;2023-03-11T06:07:21;6.45;;;2.47;;
77055;SDS011;67471;44.918;8.614;2023-03-11T06:10:25;7.72;;;2.30;;
77055;SDS011;67471;44.918;8.614;2023-03-11T06:13:29;4.45;;;2.28;;
77055;SDS011;67471;44.918;8.614;2023-03-11T06:16:32;6.07;;;2.63;;
77055;SDS011;67471;44.918;8.614;2023-03-11T06:19:39;5.47;;;2.67;;
77055;SDS011;67471;44.918;8.614;2023-03-11T06:22:43;13.52;;;4.20;;
77055;SDS011;67471;44.918;8.614;2023-03-11T06:26:21;6.35;;;2.38;;
77055;SDS011;67471;44.918;8.614;2023-03-11T06:29:21;6.05;;;2.25;;
77055;SDS011;67471;44.918;8.614;2023-03-11T06:32:27;4.57;;;2.13;;
77055;SDS011;67471;44.918;8.614;2023-03-11T06:35:31;5.35;;;2.33;;
77055;SDS011;67471;44.918;8.614;2023-03-11T06:38:35;7.45;;;2.63;;
77055;SDS011;67471;44.918;8.614;2023-03-11T06:41:40;6.38;;;2.33;;
77055;SDS011;67471;44.918;8.614;2023-03-11T06:44:46;7.53;;;4.57;;
77055;SDS011;67471;44.918;8.614;2023-03-11T06:47:51;9.23;;;4.00;;
77055;SDS011;67471;44.918;8.614;2023-03-11T06:50:55;7.32;;;2.90;;
77055;SDS011;67471;44.918;8.614;2023-03-11T06:54:00;8.48;;;2.50;;
77055;SDS011;67471;44.918;8.614;2023-03-11T06:57:08;7.45;;;2.38;;
77055;SDS011;67471;44.918;8.614;2023-03-11T07:00:14;8.00;;;2.50;;
77055;SDS011;67471;44.918;8.614;2023-03-11T07:03:23;8.68;;;3.17;;
77055;SDS011;67471;44.918;8.614;2023-03-11T07:06:27;7.55;;;2.63;;
77055;SDS011;67471;44.918;8.614;2023-03-11T07:09:38;13.98;;;4.43;;
77055;SDS011;67471;44.918;8.614;2023-03-11T07:12:43;8.75;;;4.53;;
77055;SDS011;67471;44.918;8.614;2023-03-11T07:15:47;5.43;;;3.38;;
77055;SDS011;67471;44.918;8.614;2023-03-11T07:18:51;8.60;;;2.95;;
77055;SDS011;67471;44.918;8.614;2023-03-11T07:21:57;6.70;;;3.17;;
77055;SDS011;67471;44.918;8.614;2023-03-11T07:25:01;6.63;;;2.72;;
77055;SDS011;67471;44.918;8.614;2023-03-11T07:28:05;6.88;;;3.13;;
77055;SDS011;67471;44.918;8.614;2023-03-11T07:31:09;11.80;;;4.10;;
77055;SDS011;67471;44.918;8.614;2023-03-11T07:34:18;11.13;;;5.70;;
77055;SDS011;67471;44.918;8.614;2023-03-11T07:37:22;12.93;;;6.50;;
77055;SDS011;67471;44.918;8.614;2023-03-11T07:40:26;12.82;;;6.20;;
77055;SDS011;67471;44.918;8.614;2023-03-11T07:43:30;12.50;;;5.95;;
77055;SDS011;67471;44.918;8.614;2023-03-11T07:46:34;10.68;;;5.97;;
77055;SDS011;67471;44.918;8.614;2023-03-11T07:49:37;13.02;;;6.20;;
77055;SDS011;67471;44.918;8.614;2023-03-11T07:52:42;15.52;;;5.55;;
77055;SDS011;67471;44.918;8.614;2023-03-11T07:55:47;14.93;;;5.60;;
77055;SDS011;67471;44.918;8.614;2023-03-11T07:58:51;10.93;;;5.53;;
77055;SDS011;67471;44.918;8.614;2023-03-11T08:01:55;13.23;;;4.82;;
77055;SDS011;67471;44.918;8.614;2023-03-11T08:04:59;9.40;;;4.38;;
77055;SDS011;67471;44.918;8.614;2023-03-11T08:08:03;7.20;;;3.05;;
77055;SDS011;67471;44.918;8.614;2023-03-11T08:11:07;6.85;;;3.05;;
77055;SDS011;67471;44.918;8.614;2023-03-11T08:14:10;10.30;;;3.00;;
77055;SDS011;67471;44.918;8.614;2023-03-11T08:17:15;5.25;;;2.70;;
77055;SDS011;67471;44.918;8.614;2023-03-11T08:20:19;5.15;;;2.92;;
77055;SDS011;67471;44.918;8.614;2023-03-11T08:23:23;7.05;;;2.65;;
77055;SDS011;67471;44.918;8.614;2023-03-11T08:26:27;10.80;;;2.55;;
77055;SDS011;67471;44.918;8.614;2023-03-11T08:29:30;7.90;;;2.67;;
77055;SDS011;67471;44.918;8.614;2023-03-11T08:32:34;6.93;;;3.15;;
77055;SDS011;67471;44.918;8.614;2023-03-11T08:35:38;7.40;;;2.88;;
77055;SDS011;67471;44.918;8.614;2023-03-11T08:38:42;6.40;;;2.15;;
77055;SDS011;67471;44.918;8.614;2023-03-11T08:41:46;4.88;;;2.20;;
77055;SDS011;67471;44.918;8.614;2023-03-11T08:44:49;5.95;;;2.00;;
77055;SDS011;67471;44.918;8.614;2023-03-11T08:47:53;3.95;;;1.88;;
77055;SDS011;67471;44.918;8.614;2023-03-11T08:50:57;4.97;;;1.67;;
77055;SDS011;67471;44.918;8.614;2023-03-11T08:54:01;3.55;;;1.67;;
77055;SDS011;67471;44.918;8.614;2023-03-11T08:57:05;4.60;;;1.48;;
77055;SDS011;67471;44.918;8.614;2023-03-11T09:00:09;4.55;;;1.80;;
77055;SDS011;67471;44.918;8.614;2023-03-11T09:03:14;2.55;;;1.45;;
77055;SDS011;67471;44.918;8.614;2023-03-11T09:06:18;5.13;;;2.00;;
77055;SDS011;67471;44.918;8.614;2023-03-11T09:09:22;5.45;;;1.77;;
77055;SDS011;67471;44.918;8.614;2023-03-11T09:12:26;3.88;;;1.98;;
77055;SDS011;67471;44.918;8.614;2023-03-11T09:15:30;5.28;;;2.40;;
77055;SDS011;67471;44.918;8.614;2023-03-11T09:18:34;9.07;;;2.75;;
77055;SDS011;67471;44.918;8.614;2023-03-11T09:21:38;6.47;;;3.05;;
77055;SDS011;67471;44.918;8.614;2023-03-11T09:24:41;6.75;;;3.13;;
77055;SDS011;67471;44.918;8.614;2023-03-11T09:27:45;5.18;;;2.30;;
77055;SDS011;67471;44.918;8.614;2023-03-11T09:30:49;4.47;;;1.67;;
77055;SDS011;67471;44.918;8.614;2023-03-11T09:33:53;4.15;;;1.55;;
77055;SDS011;67471;44.918;8.614;2023-03-11T09:36:59;2.90;;;1.38;;
77055;SDS011;67471;44.918;8.614;2023-03-11T09:40:03;3.72;;;1.30;;
77055;SDS011;67471;44.918;8.614;2023-03-11T09:53:15;4.50;;;1.08;;
77055;SDS011;67471;44.918;8.614;2023-03-11T09:56:24;4.70;;;1.42;;
77055;SDS011;67471;44.918;8.614;2023-03-11T09:59:31;2.25;;;1.00;;
77055;SDS011;67471;44.918;8.614;2023-03-11T10:02:36;2.75;;;1.40;;
77055;SDS011;67471;44.918;8.614;2023-03-11T10:05:42;2.15;;;0.93;;
77055;SDS011;67471;44.918;8.614;2023-03-11T10:08:48;2.33;;;0.98;;
77055;SDS011;67471;44.918;8.614;2023-03-11T10:21:42;6.03;;;1.73;;
77055;SDS011;67471;44.918;8.614;2023-03-11T10:25:02;8.88;;;5.07;;
77055;SDS011;67471;44.918;8.614;2023-03-11T10:28:14;17.75;;;9.98;;
77055;SDS011;67471;44.918;8.614;2023-03-11T10:31:29;8.10;;;4.10;;
77055;SDS011;67471;44.918;8.614;2023-03-11T10:34:52;9.35;;;3.40;;
77055;SDS011;67471;44.918;8.614;2023-03-11T10:38:45;10.23;;;7.07;;
77055;SDS011;67471;44.918;8.614;2023-03-11T10:41:34;7.65;;;3.33;;
77055;SDS011;67471;44.918;8.614;2023-03-11T10:45:04;14.18;;;9.32;;
77055;SDS011;67471;44.918;8.614;2023-03-11T10:48:16;15.07;;;8.90;;
77055;SDS011;67471;44.918;8.614;2023-03-11T10:51:23;6.95;;;3.65;;
77055;SDS011;67471;44.918;8.614;2023-03-11T10:54:33;5.35;;;2.33;;
77055;SDS011;67471;44.918;8.614;2023-03-11T10:57:41;3.13;;;1.85;;
77055;SDS011;67471;44.918;8.614;2023-03-11T11:00:45;9.48;;;6.68;;
77055;SDS011;67471;44.918;8.614;2023-03-11T11:04:01;5.63;;;2.40;;
77055;SDS011;67471;44.918;8.614;2023-03-11T11:07:26;5.78;;;2.95;;
77055;SDS011;67471;44.918;8.614;2023-03-11T11:10:36;5.50;;;2.38;;
77055;SDS011;67471;44.918;8.614;2023-03-11T11:13:40;7.68;;;2.60;;
77055;SDS011;67471;44.918;8.614;2023-03-11T11:16:59;5.82;;;2.05;;
77055;SDS011;67471;44.918;8.614;2023-03-11T11:20:02;4.60;;;2.10;;
77055;SDS011;67471;44.918;8.614;2023-03-11T11:23:28;3.90;;;2.17;;
77055;SDS011;67471;44.918;8.614;2023-03-11T11:26:35;3.92;;;2.22;;
77055;SDS011;67471;44.918;8.614;2023-03-11T11:29:39;7.88;;;2.90;;
77055;SDS011;67471;44.918;8.614;2023-03-11T11:32:42;4.68;;;2.25;;
77055;SDS011;67471;44.918;8.614;2023-03-11T11:35:48;6.65;;;4.50;;
77055;SDS011;67471;44.918;8.614;2023-03-11T11:38:54;4.93;;;1.98;;
77055;SDS011;67471;44.918;8.614;2023-03-11T11:41:58;10.10;;;6.53;;
77055;SDS011;67471;44.918;8.614;2023-03-11T11:45:15;4.28;;;2.28;;
77055;SDS011;67471;44.918;8.614;2023-03-11T11:48:34;4.15;;;2.30;;
77055;SDS011;67471;44.918;8.614;2023-03-11T11:51:49;5.15;;;3.03;;
77055;SDS011;67471;44.918;8.614;2023-03-11T11:55:03;5.25;;;3.15;;
77055;SDS011;67471;44.918;8.614;2023-03-11T11:58:13;8.20;;;3.08;;
77055;SDS011;67471;44.918;8.614;2023-03-11T12:07:46;4.18;;;2.58;;
77055;SDS011;67471;44.918;8.614;2023-03-11T12:11:00;4.13;;;2.38;;
77055;SDS011;67471;44.918;8.614;2023-03-11T12:14:30;5.53;;;2.03;;
77055;SDS011;67471;44.918;8.614;2023-03-11T12:17:53;4.78;;;2.20;;
77055;SDS011;67471;44.918;8.614;2023-03-11T12:21:08;3.38;;;1.70;;
77055;SDS011;67471;44.918;8.614;2023-03-11T12:27:52;3.40;;;1.63;;
77055;SDS011;67471;44.918;8.614;2023-03-11T12:31:02;4.75;;;2.00;;
77055;SDS011;67471;44.918;8.614;2023-03-11T12:37:17;3.92;;;1.52;;
77055;SDS011;67471;44.918;8.614;2023-03-11T12:53:45;3.80;;;1.55;;
77055;SDS011;67471;44.918;8.614;2023-03-11T12:56:54;3.53;;;1.30;;
77055;SDS011;67471;44.918;8.614;2023-03-11T13:06:51;3.47;;;1.38;;
77055;SDS011;67471;44.918;8.614;2023-03-11T13:16:34;3.15;;;1.40;;
77055;SDS011;67471;44.918;8.614;2023-03-11T13:19:46;2.53;;;1.00;;
77055;SDS011;67471;44.918;8.614;2023-03-11T13:36:08;3.63;;;1.30;;
77055;SDS011;67471;44.918;8.614;2023-03-11T13:42:35;2.53;;;1.23;;
77055;SDS011;67471;44.918;8.614;2023-03-11T13:45:51;4.82;;;2.00;;
77055;SDS011;67471;44.918;8.614;2023-03-11T13:48:59;3.78;;;1.40;;
77055;SDS011;67471;44.918;8.614;2023-03-11T13:52:11;4.20;;;2.47;;
77055;SDS011;67471;44.918;8.614;2023-03-11T13:55:21;4.70;;;3.03;;
77055;SDS011;67471;44.918;8.614;2023-03-11T13:58:29;3.97;;;1.60;;
77055;SDS011;67471;44.918;8.614;2023-03-11T14:01:32;3.03;;;1.45;;
77055;SDS011;67471;44.918;8.614;2023-03-11T14:04:36;3.38;;;1.58;;
77055;SDS011;67471;44.918;8.614;2023-03-11T14:07:41;1.83;;;1.00;;
77055;SDS011;67471;44.918;8.614;2023-03-11T14:10:55;2.97;;;1.48;;
77055;SDS011;67471;44.918;8.614;2023-03-11T14:14:11;5.13;;;1.83;;
77055;SDS011;67471;44.918;8.614;2023-03-11T14:17:32;3.38;;;1.48;;
77055;SDS011;67471;44.918;8.614;2023-03-11T14:20:36;5.43;;;2.92;;
77055;SDS011;67471;44.918;8.614;2023-03-11T14:23:42;3.13;;;1.50;;
77055;SDS011;67471;44.918;8.614;2023-03-11T14:26:49;1.90;;;1.00;;
77055;SDS011;67471;44.918;8.614;2023-03-11T14:29:57;4.15;;;1.30;;
77055;SDS011;67471;44.918;8.614;2023-03-11T14:33:01;1.90;;;0.80;;
77055;SDS011;67471;44.918;8.614;2023-03-11T14:36:07;3.22;;;1.23;;
77055;SDS011;67471;44.918;8.614;2023-03-11T14:42:28;6.32;;;4.00;;
77055;SDS011;67471;44.918;8.614;2023-03-11T14:45:37;3.22;;;1.88;;
77055;SDS011;67471;44.918;8.614;2023-03-11T14:48:42;1.67;;;0.75;;
77055;SDS011;67471;44.918;8.614;2023-03-11T14:51:48;1.60;;;0.70;;
77055;SDS011;67471;44.918;8.614;2023-03-11T14:54:57;1.50;;;0.70;;
77055;SDS011;67471;44.918;8.614;2023-03-11T15:01:29;2.20;;;0.80;;
77055;SDS011;67471;44.918;8.614;2023-03-11T15:04:33;1.73;;;0.85;;
77055;SDS011;67471;44.918;8.614;2023-03-11T15:07:41;2.25;;;1.10;;
77055;SDS011;67471;44.918;8.614;2023-03-11T15:11:02;3.38;;;1.55;;
77055;SDS011;67471;44.918;8.614;2023-03-11T15:14:15;3.05;;;1.90;;
77055;SDS011;67471;44.918;8.614;2023-03-11T15:17:23;2.92;;;1.58;;
77055;SDS011;67471;44.918;8.614;2023-03-11T15:20:32;1.80;;;0.80;;
77055;SDS011;67471;44.918;8.614;2023-03-11T15:23:38;3.45;;;1.05;;
77055;SDS011;67471;44.918;8.614;2023-03-11T15:26:42;1.77;;;1.08;;
77055;SDS011;67471;44.918;8.614;2023-03-11T15:29:56;2.92;;;0.80;;
77055;SDS011;67471;44.918;8.614;2023-03-11T15:33:01;1.90;;;0.80;;
77055;SDS011;67471;44.918;8.614;2023-03-11T15:36:32;2.05;;;0.90;;
77055;SDS011;67471;44.918;8.614;2023-03-11T15:42:46;2.83;;;0.90;;
77055;SDS011;67471;44.918;8.614;2023-03-11T15:45:51;7.05;;;1.10;;
77055;SDS011;67471;44.918;8.614;2023-03-11T15:48:56;4.32;;;1.10;;
77055;SDS011;67471;44.918;8.614;2023-03-11T15:52:00;2.65;;;1.25;;
77055;SDS011;67471;44.918;8.614;2023-03-11T15:55:05;3.45;;;1.50;;
77055;SDS011;67471;44.918;8.614;2023-03-11T15:58:10;4.03;;;1.63;;
77055;SDS011;67471;44.918;8.614;2023-03-11T16:01:16;2.17;;;1.20;;
77055;SDS011;67471;44.918;8.614;2023-03-11T16:04:25;3.33;;;1.48;;
77055;SDS011;67471;44.918;8.614;2023-03-11T16:07:29;4.55;;;1.40;;
77055;SDS011;67471;44.918;8.614;2023-03-11T16:10:34;3.00;;;1.42;;
77055;SDS011;67471;44.918;8.614;2023-03-11T16:13:38;3.28;;;1.60;;
77055;SDS011;67471;44.918;8.614;2023-03-11T16:16:42;3.55;;;1.80;;
77055;SDS011;67471;44.918;8.614;2023-03-11T16:19:47;5.05;;;1.45;;
77055;SDS011;67471;44.918;8.614;2023-03-11T16:22:54;2.78;;;1.20;;
77055;SDS011;67471;44.918;8.614;2023-03-11T16:26:01;8.32;;;3.03;;
77055;SDS011;67471;44.918;8.614;2023-03-11T16:29:07;1.45;;;0.85;;
77055;SDS011;67471;44.918;8.614;2023-03-11T16:32:13;2.15;;;1.17;;
77055;SDS011;67471;44.918;8.614;2023-03-11T16:35:17;5.25;;;1.85;;
77055;SDS011;67471;44.918;8.614;2023-03-11T16:38:21;5.60;;;2.58;;
77055;SDS011;67471;44.918;8.614;2023-03-11T16:41:27;5.18;;;1.75;;
77055;SDS011;67471;44.918;8.614;2023-03-11T16:44:31;3.38;;;1.60;;
77055;SDS011;67471;44.918;8.614;2023-03-11T16:47:35;3.55;;;1.60;;
77055;SDS011;67471;44.918;8.614;2023-03-11T16:50:39;3.85;;;1.30;;
77055;SDS011;67471;44.918;8.614;2023-03-11T16:53:43;4.10;;;1.70;;
77055;SDS011;67471;44.918;8.614;2023-03-11T16:56:47;11.73;;;7.47;;
77055;SDS011;67471;44.918;8.614;2023-03-11T16:59:51;3.95;;;1.98;;
77055;SDS011;67471;44.918;8.614;2023-03-11T17:02:54;7.30;;;1.50;;
77055;SDS011;67471;44.918;8.614;2023-03-11T17:06:02;4.07;;;1.58;;
77055;SDS011;67471;44.918;8.614;2023-03-11T17:09:06;4.72;;;1.73;;
77055;SDS011;67471;44.918;8.614;2023-03-11T17:12:10;3.83;;;1.73;;
77055;SDS011;67471;44.918;8.614;2023-03-11T17:15:18;3.07;;;1.60;;
77055;SDS011;67471;44.918;8.614;2023-03-11T17:18:21;2.92;;;1.23;;
77055;SDS011;67471;44.918;8.614;2023-03-11T17:21:25;2.50;;;1.30;;
77055;SDS011;67471;44.918;8.614;2023-03-11T17:24:29;2.35;;;1.40;;
77055;SDS011;67471;44.918;8.614;2023-03-11T17:27:33;2.42;;;1.40;;
77055;SDS011;67471;44.918;8.614;2023-03-11T17:30:41;3.30;;;1.50;;
77055;SDS011;67471;44.918;8.614;2023-03-11T17:33:45;7.03;;;1.90;;
77055;SDS011;67471;44.918;8.614;2023-03-11T17:36:49;5.60;;;1.73;;
77055;SDS011;67471;44.918;8.614;2023-03-11T17:39:53;5.97;;;2.35;;
77055;SDS011;67471;44.918;8.614;2023-03-11T17:42:57;5.93;;;1.95;;
77055;SDS011;67471;44.918;8.614;2023-03-11T17:46:01;6.10;;;1.70;;
77055;SDS011;67471;44.918;8.614;2023-03-11T17:49:11;7.47;;;2.47;;
77055;SDS011;67471;44.918;8.614;2023-03-11T17:52:15;9.05;;;2.30;;
77055;SDS011;67471;44.918;8.614;2023-03-11T17:55:20;4.25;;;2.38;;
77055;SDS011;67471;44.918;8.614;2023-03-11T17:58:24;9.18;;;2.75;;
77055;SDS011;67471;44.918;8.614;2023-03-11T18:01:28;7.10;;;3.42;;
77055;SDS011;67471;44.918;8.614;2023-03-11T18:04:32;7.95;;;4.38;;
77055;SDS011;67471;44.918;8.614;2023-03-11T18:07:36;6.95;;;3.90;;
77055;SDS011;67471;44.918;8.614;2023-03-11T18:10:47;6.07;;;2.22;;
77055;SDS011;67471;44.918;8.614;2023-03-11T18:13:51;5.63;;;2.63;;
77055;SDS011;67471;44.918;8.614;2023-03-11T18:16:56;4.70;;;2.72;;
77055;SDS011;67471;44.918;8.614;2023-03-11T18:20:00;7.40;;;2.53;;
77055;SDS011;67471;44.918;8.614;2023-03-11T18:23:03;8.75;;;4.28;;
77055;SDS011;67471;44.918;8.614;2023-03-11T18:26:08;8.50;;;4.28;;
77055;SDS011;67471;44.918;8.614;2023-03-11T18:29:15;8.18;;;3.97;;
77055;SDS011;67471;44.918;8.614;2023-03-11T18:32:19;13.88;;;4.13;;
77055;SDS011;67471;44.918;8.614;2023-03-11T18:35:23;7.80;;;3.30;;
77055;SDS011;67471;44.918;8.614;2023-03-11T18:38:27;5.05;;;3.55;;
77055;SDS011;67471;44.918;8.614;2023-03-11T18:41:32;6.15;;;3.42;;
77055;SDS011;67471;44.918;8.614;2023-03-11T18:44:37;14.07;;;3.70;;
77055;SDS011;67471;44.918;8.614;2023-03-11T18:47:40;7.47;;;4.50;;
77055;SDS011;67471;44.918;8.614;2023-03-11T18:50:54;10.18;;;4.82;;
77055;SDS011;67471;44.918;8.614;2023-03-11T18:53:58;8.52;;;5.55;;
77055;SDS011;67471;44.918;8.614;2023-03-11T18:57:03;7.72;;;3.90;;
77055;SDS011;67471;44.918;8.614;2023-03-11T19:00:08;6.85;;;3.65;;
77055;SDS011;67471;44.918;8.614;2023-03-11T19:03:12;6.85;;;3.35;;
77055;SDS011;67471;44.918;8.614;2023-03-11T19:06:17;6.18;;;3.05;;
77055;SDS011;67471;44.918;8.614;2023-03-11T19:09:21;7.38;;;2.95;;
77055;SDS011;67471;44.918;8.614;2023-03-11T19:12:24;5.72;;;2.80;;
77055;SDS011;67471;44.918;8.614;2023-03-11T19:15:31;3.42;;;1.77;;
77055;SDS011;67471;44.918;8.614;2023-03-11T19:18:35;4.30;;;2.10;;
77055;SDS011;67471;44.918;8.614;2023-03-11T19:21:39;9.63;;;2.67;;
77055;SDS011;67471;44.918;8.614;2023-03-11T19:24:42;5.07;;;2.47;;
77055;SDS011;67471;44.918;8.614;2023-03-11T19:27:46;5.38;;;2.30;;
77055;SDS011;67471;44.918;8.614;2023-03-11T19:30:51;4.10;;;2.13;;
77055;SDS011;67471;44.918;8.614;2023-03-11T19:33:56;4.22;;;2.00;;
77055;SDS011;67471;44.918;8.614;2023-03-11T19:37:00;4.13;;;2.15;;
77055;SDS011;67471;44.918;8.614;2023-03-11T19:40:03;7.28;;;3.65;;
77055;SDS011;67471;44.918;8.614;2023-03-11T19:43:08;5.25;;;2.33;;
77055;SDS011;67471;44.918;8.614;2023-03-11T19:46:16;3.88;;;2.25;;
77055;SDS011;67471;44.918;8.614;2023-03-11T19:49:21;6.20;;;3.17;;
77055;SDS011;67471;44.918;8.614;2023-03-11T19:52:25;4.05;;;2.05;;
77055;SDS011;67471;44.918;8.614;2023-03-11T19:55:29;4.05;;;2.13;;
77055;SDS011;67471;44.918;8.614;2023-03-11T19:58:33;2.92;;;1.60;;
77055;SDS011;67471;44.918;8.614;2023-03-11T20:01:37;4.55;;;2.13;;
77055;SDS011;67471;44.918;8.614;2023-03-11T20:04:41;5.60;;;1.80;;
77055;SDS011;67471;44.918;8.614;2023-03-11T20:07:45;5.38;;;2.17;;